KFY1097 SVMI-SBGR
Flight info
| Callsign | KFY1097 |
|---|---|
| Flight time | N/A |
| Altitude | 37000 |
| Route | CBC UM417 DIDAB DCT VULMI DCT ALBOK DCT REKOG |
| Aircraft | A20N/M-SDE2E3FGHIRWXY/LB1 |
Departure
| Time | 2026-05-05 20:29 |
|---|---|
| Airport | Maiquetía Simón Bolívar International Airport (SVMI) |
Arrival
| Time | N/A |
|---|---|
| Airport | São Paulo/Guarulhos–Governor André Franco Montoro International Airport (SBGR) |
| Time | Latitude | Longitude | Altitude | Speed | Heading |
|---|---|---|---|---|---|
| 2026-05-05 20:08 | 10.60060 | -67.00206 | 144 ft | 0 kts | 358° |
| 2026-05-05 20:18 | 10.60054 | -67.00206 | 144 ft | 2 kts | 357° |
| 2026-05-05 20:18 | 10.60038 | -67.00205 | 181 ft | 2 kts | 353° |
| 2026-05-05 20:19 | 10.60022 | -67.00200 | 186 ft | 2 kts | 286° |
| 2026-05-05 20:19 | 10.60021 | -67.00190 | 192 ft | 0 kts | 269° |
| 2026-05-05 20:19 | 10.60021 | -67.00189 | 192 ft | 0 kts | 269° |
| 2026-05-05 20:23 | 10.60021 | -67.00190 | 192 ft | 0 kts | 269° |
| 2026-05-05 20:23 | 10.60021 | -67.00211 | 192 ft | 7 kts | 269° |
| 2026-05-05 20:24 | 10.60014 | -67.00277 | 194 ft | 11 kts | 250° |
| 2026-05-05 20:24 | 10.59999 | -67.00358 | 196 ft | 13 kts | 269° |
| 2026-05-05 20:24 | 10.59995 | -67.00467 | 199 ft | 18 kts | 268° |
| 2026-05-05 20:24 | 10.59992 | -67.00607 | 212 ft | 21 kts | 267° |
| 2026-05-05 20:25 | 10.59986 | -67.00755 | 211 ft | 21 kts | 268° |
| 2026-05-05 20:25 | 10.59982 | -67.00902 | 210 ft | 21 kts | 268° |
| 2026-05-05 20:25 | 10.59978 | -67.01047 | 216 ft | 20 kts | 268° |
| 2026-05-05 20:25 | 10.59973 | -67.01179 | 217 ft | 17 kts | 268° |
| 2026-05-05 20:26 | 10.60037 | -67.01253 | 219 ft | 14 kts | 359° |
| 2026-05-05 20:26 | 10.60123 | -67.01255 | 224 ft | 0 kts | 358° |
| 2026-05-05 20:27 | 10.60125 | -67.01255 | 223 ft | 2 kts | 358° |
| 2026-05-05 20:27 | 10.60171 | -67.01256 | 218 ft | 12 kts | 358° |
| 2026-05-05 20:27 | 10.60221 | -67.01249 | 219 ft | 1 kts | 55° |
| 2026-05-05 20:28 | 10.60216 | -67.01224 | 217 ft | 9 kts | 99° |
| 2026-05-05 20:28 | 10.60214 | -67.01111 | 214 ft | 36 kts | 88° |
| 2026-05-05 20:28 | 10.60232 | -67.00577 | 204 ft | 112 kts | 88° |
| 2026-05-05 20:28 | 10.60262 | -66.99589 | 325 ft | 156 kts | 89° |
| 2026-05-05 20:29 | 10.60349 | -66.98492 | 1001 ft | 161 kts | 79° |
| 2026-05-05 20:29 | 10.60582 | -66.97342 | 1715 ft | 171 kts | 77° |
| 2026-05-05 20:29 | 10.60871 | -66.96134 | 2410 ft | 179 kts | 76° |
| 2026-05-05 20:29 | 10.61155 | -66.94873 | 3004 ft | 187 kts | 79° |
| 2026-05-05 20:30 | 10.61382 | -66.93527 | 3466 ft | 202 kts | 81° |
| 2026-05-05 20:30 | 10.61600 | -66.92051 | 3692 ft | 224 kts | 81° |
| 2026-05-05 20:30 | 10.61852 | -66.90407 | 3904 ft | 246 kts | 81° |
| 2026-05-05 20:30 | 10.62147 | -66.88626 | 4301 ft | 263 kts | 82° |
| 2026-05-05 20:31 | 10.62464 | -66.86783 | 5042 ft | 267 kts | 82° |
| 2026-05-05 20:31 | 10.62787 | -66.84909 | 5778 ft | 270 kts | 81° |
| 2026-05-05 20:31 | 10.63115 | -66.83017 | 6564 ft | 272 kts | 81° |
| 2026-05-05 20:31 | 10.63444 | -66.81129 | 7326 ft | 272 kts | 82° |
| 2026-05-05 20:32 | 10.63777 | -66.79216 | 8005 ft | 277 kts | 82° |
| 2026-05-05 20:32 | 10.64111 | -66.77295 | 8804 ft | 276 kts | 82° |
| 2026-05-05 20:32 | 10.64445 | -66.75371 | 9546 ft | 277 kts | 82° |
| 2026-05-05 20:32 | 10.64778 | -66.73439 | 10163 ft | 284 kts | 82° |
| 2026-05-05 20:33 | 10.65130 | -66.71396 | 10402 ft | 303 kts | 82° |
| 2026-05-05 20:33 | 10.65505 | -66.69219 | 10579 ft | 323 kts | 82° |
| 2026-05-05 20:33 | 10.65901 | -66.66928 | 10865 ft | 333 kts | 82° |
| 2026-05-05 20:33 | 10.66302 | -66.64612 | 10950 ft | 332 kts | 82° |
| 2026-05-05 20:34 | 10.66702 | -66.62306 | 10957 ft | 332 kts | 82° |
| 2026-05-05 20:34 | 10.67103 | -66.59992 | 10959 ft | 332 kts | 82° |
| 2026-05-05 20:34 | 10.67503 | -66.57682 | 10959 ft | 332 kts | 82° |
| 2026-05-05 20:34 | 10.67902 | -66.55370 | 10958 ft | 332 kts | 81° |
| 2026-05-05 20:35 | 10.68301 | -66.53065 | 10962 ft | 332 kts | 81° |
| 2026-05-05 20:35 | 10.68562 | -66.50740 | 10975 ft | 332 kts | 90° |
| 2026-05-05 20:35 | 10.68416 | -66.48417 | 11376 ft | 334 kts | 99° |
| 2026-05-05 20:35 | 10.67894 | -66.46086 | 12084 ft | 335 kts | 105° |
| 2026-05-05 20:36 | 10.67307 | -66.43818 | 12673 ft | 338 kts | 104° |
| 2026-05-05 20:36 | 10.66714 | -66.41490 | 13260 ft | 342 kts | 104° |
| 2026-05-05 20:36 | 10.66109 | -66.39108 | 13850 ft | 345 kts | 104° |
| 2026-05-05 20:36 | 10.65505 | -66.36742 | 14356 ft | 349 kts | 104° |
| 2026-05-05 20:37 | 10.64892 | -66.34346 | 14851 ft | 353 kts | 104° |
| 2026-05-05 20:37 | 10.64489 | -66.32776 | 15180 ft | 355 kts | 104° |
| 2026-05-05 20:37 | 10.63661 | -66.29551 | 15848 ft | 359 kts | 103° |
| 2026-05-05 20:37 | 10.63026 | -66.27080 | 16343 ft | 363 kts | 103° |
| 2026-05-05 20:38 | 10.62385 | -66.24586 | 16839 ft | 366 kts | 103° |
| 2026-05-05 20:38 | 10.61737 | -66.22064 | 17268 ft | 371 kts | 103° |
| 2026-05-05 20:38 | 10.61083 | -66.19520 | 17769 ft | 374 kts | 103° |
| 2026-05-05 20:38 | 10.60425 | -66.16961 | 18249 ft | 378 kts | 103° |
| 2026-05-05 20:39 | 10.59758 | -66.14367 | 18662 ft | 381 kts | 103° |
| 2026-05-05 20:39 | 10.59085 | -66.11748 | 19072 ft | 385 kts | 103° |
| 2026-05-05 20:39 | 10.58404 | -66.09105 | 19453 ft | 390 kts | 104° |
| 2026-05-05 20:39 | 10.57373 | -66.06546 | 19863 ft | 395 kts | 119° |
| 2026-05-05 20:40 | 10.55659 | -66.04335 | 20212 ft | 403 kts | 135° |
| 2026-05-05 20:40 | 10.54192 | -66.03159 | 20448 ft | 409 kts | 146° |
| 2026-05-05 20:40 | 10.51722 | -66.01708 | 20889 ft | 411 kts | 150° |
| 2026-05-05 20:40 | 10.49213 | -66.00305 | 21201 ft | 417 kts | 150° |
| 2026-05-05 20:41 | 10.46662 | -65.98878 | 21621 ft | 419 kts | 150° |
| 2026-05-05 20:41 | 10.44112 | -65.97442 | 22072 ft | 421 kts | 150° |
| 2026-05-05 20:41 | 10.40709 | -65.95512 | 22622 ft | 424 kts | 150° |
| 2026-05-05 20:41 | 10.38113 | -65.94033 | 22837 ft | 432 kts | 150° |
| 2026-05-05 20:42 | 10.36340 | -65.93022 | 23024 ft | 436 kts | 150° |
| 2026-05-05 20:42 | 10.33704 | -65.91516 | 23608 ft | 432 kts | 151° |
| 2026-05-05 20:42 | 10.31089 | -65.90023 | 24005 ft | 433 kts | 151° |
| 2026-05-05 20:42 | 10.28436 | -65.88509 | 24123 ft | 442 kts | 151° |
| 2026-05-05 20:43 | 10.25749 | -65.86978 | 24475 ft | 443 kts | 151° |
| 2026-05-05 20:43 | 10.23103 | -65.85470 | 24851 ft | 443 kts | 151° |
| 2026-05-05 20:43 | 10.20435 | -65.83950 | 25243 ft | 443 kts | 151° |
| 2026-05-05 20:43 | 10.17726 | -65.82407 | 25402 ft | 450 kts | 151° |
| 2026-05-05 20:44 | 10.15024 | -65.80869 | 25821 ft | 448 kts | 151° |
| 2026-05-05 20:44 | 10.12294 | -65.79314 | 26022 ft | 453 kts | 151° |
| 2026-05-05 20:44 | 10.09550 | -65.77752 | 26411 ft | 452 kts | 151° |
| 2026-05-05 20:44 | 10.06797 | -65.76188 | 26563 ft | 458 kts | 152° |
| 2026-05-05 20:45 | 10.01158 | -65.73620 | 27094 ft | 461 kts | 157° |
| 2026-05-05 20:45 | 9.98207 | -65.72335 | 27325 ft | 463 kts | 157° |
| 2026-05-05 20:45 | 9.95258 | -65.71049 | 27688 ft | 463 kts | 157° |
| 2026-05-05 20:46 | 9.92282 | -65.69751 | 27893 ft | 466 kts | 157° |
| 2026-05-05 20:46 | 9.89310 | -65.68456 | 28182 ft | 467 kts | 157° |
| 2026-05-05 20:46 | 9.86309 | -65.67149 | 28346 ft | 471 kts | 157° |
| 2026-05-05 20:46 | 9.83297 | -65.65839 | 28615 ft | 472 kts | 157° |
| 2026-05-05 20:47 | 9.80269 | -65.64521 | 28789 ft | 475 kts | 157° |
| 2026-05-05 20:47 | 9.77233 | -65.63201 | 29029 ft | 476 kts | 157° |
| 2026-05-05 20:47 | 9.74180 | -65.61873 | 29244 ft | 478 kts | 157° |
| 2026-05-05 20:47 | 9.71126 | -65.60545 | 29469 ft | 479 kts | 157° |
| 2026-05-05 20:48 | 9.68053 | -65.59210 | 29694 ft | 481 kts | 157° |
| 2026-05-05 20:48 | 9.64965 | -65.57868 | 29849 ft | 484 kts | 157° |
| 2026-05-05 20:48 | 9.61877 | -65.56526 | 30021 ft | 486 kts | 157° |
| 2026-05-05 20:48 | 9.58758 | -65.55172 | 30198 ft | 487 kts | 157° |
| 2026-05-05 20:49 | 9.55646 | -65.53820 | 30446 ft | 487 kts | 157° |
| 2026-05-05 20:49 | 9.52525 | -65.52466 | 30631 ft | 489 kts | 157° |
| 2026-05-05 20:49 | 9.49390 | -65.51105 | 30816 ft | 490 kts | 157° |
| 2026-05-05 20:49 | 9.46253 | -65.49743 | 31024 ft | 492 kts | 157° |
| 2026-05-05 20:50 | 9.43120 | -65.48384 | 31301 ft | 491 kts | 157° |
| 2026-05-05 20:50 | 9.40021 | -65.47039 | 31503 ft | 492 kts | 157° |
| 2026-05-05 20:50 | 9.36884 | -65.45679 | 31828 ft | 489 kts | 157° |
| 2026-05-05 20:50 | 9.33757 | -65.44323 | 32092 ft | 489 kts | 157° |
| 2026-05-05 20:51 | 9.30643 | -65.42973 | 32432 ft | 486 kts | 157° |
| 2026-05-05 20:51 | 9.27537 | -65.41627 | 32673 ft | 485 kts | 157° |
| 2026-05-05 20:51 | 9.24435 | -65.40282 | 32907 ft | 485 kts | 156° |
| 2026-05-05 20:51 | 9.21336 | -65.38939 | 33129 ft | 484 kts | 156° |
| 2026-05-05 20:52 | 9.18229 | -65.37593 | 33342 ft | 484 kts | 156° |
| 2026-05-05 20:52 | 9.15136 | -65.36254 | 33605 ft | 483 kts | 156° |
| 2026-05-05 20:52 | 9.12050 | -65.34917 | 33827 ft | 482 kts | 156° |
| 2026-05-05 20:52 | 9.08973 | -65.33585 | 34070 ft | 480 kts | 156° |
| 2026-05-05 20:53 | 9.05897 | -65.32253 | 34208 ft | 481 kts | 156° |
| 2026-05-05 20:53 | 9.02819 | -65.30921 | 34408 ft | 480 kts | 156° |
| 2026-05-05 20:53 | 8.99747 | -65.29592 | 34517 ft | 481 kts | 156° |
| 2026-05-05 20:53 | 8.96672 | -65.28262 | 34698 ft | 480 kts | 156° |
| 2026-05-05 20:54 | 8.93631 | -65.26947 | 34887 ft | 479 kts | 156° |
| 2026-05-05 20:54 | 8.90571 | -65.25624 | 35076 ft | 478 kts | 156° |
| 2026-05-05 20:54 | 8.87527 | -65.24308 | 35262 ft | 476 kts | 156° |
| 2026-05-05 20:54 | 8.84470 | -65.22987 | 35385 ft | 477 kts | 156° |
| 2026-05-05 20:55 | 8.81425 | -65.21670 | 35564 ft | 476 kts | 156° |
| 2026-05-05 20:55 | 8.78367 | -65.20349 | 35645 ft | 478 kts | 156° |
| 2026-05-05 20:55 | 8.75352 | -65.19045 | 35874 ft | 475 kts | 156° |
| 2026-05-05 20:55 | 8.72325 | -65.17737 | 36031 ft | 475 kts | 156° |
| 2026-05-05 20:56 | 8.69294 | -65.16427 | 36275 ft | 472 kts | 156° |
| 2026-05-05 20:56 | 8.66268 | -65.15120 | 36410 ft | 473 kts | 156° |
| 2026-05-05 20:56 | 8.63241 | -65.13812 | 36516 ft | 473 kts | 156° |
| 2026-05-05 20:56 | 8.60215 | -65.12505 | 36649 ft | 473 kts | 156° |
| 2026-05-05 20:57 | 8.57197 | -65.11202 | 36764 ft | 474 kts | 156° |
| 2026-05-05 20:57 | 8.54170 | -65.09895 | 36899 ft | 473 kts | 156° |
| 2026-05-05 20:57 | 8.48080 | -65.07265 | 36893 ft | 479 kts | 156° |
| 2026-05-05 20:58 | 8.41923 | -65.04609 | 36892 ft | 484 kts | 156° |
| 2026-05-05 20:58 | 8.35695 | -65.01923 | 36891 ft | 489 kts | 156° |
| 2026-05-05 20:59 | 8.29436 | -64.99224 | 36891 ft | 491 kts | 156° |
| 2026-05-05 20:59 | 8.23139 | -64.96511 | 36888 ft | 493 kts | 156° |
| 2026-05-05 21:00 | 8.16850 | -64.93802 | 36893 ft | 494 kts | 156° |
| 2026-05-05 21:00 | 8.10538 | -64.91082 | 36888 ft | 494 kts | 156° |
| 2026-05-05 21:01 | 8.04227 | -64.88365 | 36885 ft | 493 kts | 156° |
| 2026-05-05 21:01 | 7.97915 | -64.85648 | 36884 ft | 493 kts | 156° |
| 2026-05-05 21:02 | 7.91629 | -64.82943 | 36884 ft | 494 kts | 156° |
| 2026-05-05 21:02 | 7.85309 | -64.80225 | 36884 ft | 493 kts | 156° |
| 2026-05-05 21:03 | 7.78990 | -64.77508 | 36882 ft | 494 kts | 156° |
| 2026-05-05 21:03 | 7.72664 | -64.74789 | 36881 ft | 495 kts | 156° |
| 2026-05-05 21:04 | 7.66341 | -64.72071 | 36881 ft | 494 kts | 156° |
| 2026-05-05 21:04 | 7.60016 | -64.69355 | 36882 ft | 494 kts | 156° |
| 2026-05-05 21:05 | 7.53732 | -64.66656 | 36887 ft | 494 kts | 156° |
| 2026-05-05 21:05 | 7.47397 | -64.63936 | 36888 ft | 495 kts | 156° |
| 2026-05-05 21:06 | 7.41057 | -64.61215 | 36883 ft | 495 kts | 156° |
| 2026-05-05 21:06 | 7.34723 | -64.58493 | 36883 ft | 495 kts | 156° |
| 2026-05-05 21:07 | 7.28398 | -64.55746 | 36884 ft | 495 kts | 156° |
| 2026-05-05 21:07 | 7.22078 | -64.53000 | 36883 ft | 495 kts | 156° |
| 2026-05-05 21:08 | 7.15745 | -64.50252 | 36886 ft | 496 kts | 156° |
| 2026-05-05 21:08 | 7.09408 | -64.47504 | 36892 ft | 496 kts | 156° |
| 2026-05-05 21:09 | 7.03072 | -64.44758 | 36892 ft | 496 kts | 156° |
| 2026-05-05 21:09 | 6.96749 | -64.42018 | 36893 ft | 496 kts | 156° |
| 2026-05-05 21:10 | 6.90415 | -64.39274 | 36891 ft | 496 kts | 156° |
| 2026-05-05 21:10 | 6.84081 | -64.36531 | 36893 ft | 496 kts | 156° |
| 2026-05-05 21:11 | 6.77741 | -64.33786 | 36900 ft | 497 kts | 156° |
| 2026-05-05 21:11 | 6.71388 | -64.31037 | 36900 ft | 497 kts | 156° |
| 2026-05-05 21:12 | 6.65036 | -64.28288 | 36897 ft | 497 kts | 156° |
| 2026-05-05 21:12 | 6.58730 | -64.25561 | 36897 ft | 497 kts | 156° |
| 2026-05-05 21:13 | 6.52386 | -64.22818 | 36900 ft | 497 kts | 156° |
| 2026-05-05 21:13 | 6.46087 | -64.20096 | 36901 ft | 497 kts | 156° |
| 2026-05-05 21:14 | 6.39734 | -64.17350 | 36900 ft | 497 kts | 156° |
| 2026-05-05 21:14 | 6.33388 | -64.14608 | 36900 ft | 497 kts | 156° |
| 2026-05-05 21:15 | 6.27040 | -64.11866 | 36903 ft | 497 kts | 156° |
| 2026-05-05 21:15 | 6.20690 | -64.09123 | 36903 ft | 497 kts | 156° |
| 2026-05-05 21:16 | 6.14517 | -64.06459 | 36907 ft | 497 kts | 156° |
| 2026-05-05 21:16 | 6.08163 | -64.03716 | 36908 ft | 496 kts | 156° |
| 2026-05-05 21:17 | 6.01819 | -64.00978 | 36915 ft | 496 kts | 156° |
| 2026-05-05 21:17 | 5.95475 | -63.98241 | 36923 ft | 496 kts | 156° |
| 2026-05-05 21:18 | 5.89131 | -63.95505 | 36921 ft | 496 kts | 156° |
| 2026-05-05 21:18 | 5.82785 | -63.92769 | 36924 ft | 496 kts | 156° |
| 2026-05-05 21:19 | 5.76492 | -63.90056 | 36929 ft | 495 kts | 156° |
| 2026-05-05 21:19 | 5.70127 | -63.87313 | 36927 ft | 495 kts | 156° |
| 2026-05-05 21:20 | 5.63831 | -63.84600 | 36934 ft | 495 kts | 156° |
| 2026-05-05 21:20 | 5.57503 | -63.81875 | 36927 ft | 495 kts | 156° |
| 2026-05-05 21:21 | 5.51183 | -63.79153 | 36927 ft | 495 kts | 156° |
| 2026-05-05 21:21 | 5.44852 | -63.76427 | 36920 ft | 494 kts | 156° |
| 2026-05-05 21:22 | 5.38540 | -63.73710 | 36913 ft | 493 kts | 156° |
| 2026-05-05 21:22 | 5.32236 | -63.70997 | 36911 ft | 493 kts | 156° |
| 2026-05-05 21:23 | 5.25928 | -63.68283 | 36909 ft | 493 kts | 156° |
| 2026-05-05 21:23 | 5.19625 | -63.65572 | 36908 ft | 493 kts | 156° |
| 2026-05-05 21:24 | 5.13371 | -63.62882 | 36911 ft | 493 kts | 156° |
| 2026-05-05 21:24 | 5.07073 | -63.60174 | 36910 ft | 491 kts | 156° |
| 2026-05-05 21:25 | 5.00795 | -63.57475 | 36915 ft | 492 kts | 156° |
| 2026-05-05 21:25 | 4.94504 | -63.54772 | 36913 ft | 492 kts | 156° |
| 2026-05-05 21:26 | 4.88218 | -63.52070 | 36915 ft | 492 kts | 156° |
| 2026-05-05 21:26 | 4.81926 | -63.49367 | 36911 ft | 492 kts | 156° |
| 2026-05-05 21:27 | 4.75639 | -63.46667 | 36920 ft | 492 kts | 156° |
| 2026-05-05 21:27 | 4.69349 | -63.43966 | 36919 ft | 492 kts | 156° |
| 2026-05-05 21:28 | 4.63079 | -63.41273 | 36926 ft | 490 kts | 156° |
| 2026-05-05 21:28 | 4.56842 | -63.38596 | 36926 ft | 491 kts | 156° |
| 2026-05-05 21:29 | 4.50565 | -63.35902 | 36922 ft | 491 kts | 156° |
| 2026-05-05 21:29 | 4.45307 | -63.33646 | 36927 ft | 490 kts | 156° |
| 2026-05-05 21:30 | 4.39048 | -63.30960 | 36931 ft | 489 kts | 156° |
| 2026-05-05 21:30 | 4.32781 | -63.28272 | 36931 ft | 489 kts | 156° |
| 2026-05-05 21:31 | 4.26517 | -63.25585 | 36928 ft | 491 kts | 156° |
| 2026-05-05 21:31 | 4.20282 | -63.22912 | 36925 ft | 490 kts | 156° |
| 2026-05-05 21:32 | 4.14022 | -63.20227 | 36924 ft | 489 kts | 156° |
| 2026-05-05 21:32 | 4.07764 | -63.17545 | 36923 ft | 489 kts | 156° |
| 2026-05-05 21:33 | 4.01564 | -63.14888 | 36927 ft | 490 kts | 156° |
| 2026-05-05 21:33 | 3.95309 | -63.12208 | 36931 ft | 489 kts | 156° |
| 2026-05-05 21:34 | 3.89077 | -63.09537 | 36926 ft | 488 kts | 156° |
| 2026-05-05 21:34 | 3.82843 | -63.06866 | 36927 ft | 487 kts | 156° |
| 2026-05-05 21:35 | 3.76599 | -63.04192 | 36929 ft | 490 kts | 156° |
| 2026-05-05 21:35 | 3.70354 | -63.01517 | 36925 ft | 485 kts | 156° |
| 2026-05-05 21:36 | 3.64143 | -62.98856 | 36920 ft | 484 kts | 156° |
| 2026-05-05 21:36 | 3.58053 | -62.95957 | 36918 ft | 486 kts | 152° |
| 2026-05-05 21:37 | 3.52047 | -62.92852 | 36911 ft | 486 kts | 152° |
| 2026-05-05 21:37 | 3.46035 | -62.89752 | 36907 ft | 486 kts | 152° |
| 2026-05-05 21:38 | 3.40058 | -62.86671 | 36913 ft | 485 kts | 152° |
| 2026-05-05 21:38 | 3.34070 | -62.83585 | 36903 ft | 483 kts | 152° |
| 2026-05-05 21:39 | 3.28099 | -62.80507 | 36906 ft | 482 kts | 152° |
| 2026-05-05 21:39 | 3.22128 | -62.77432 | 36906 ft | 483 kts | 152° |
| 2026-05-05 21:40 | 3.16155 | -62.74354 | 36908 ft | 483 kts | 152° |
| 2026-05-05 21:40 | 3.10175 | -62.71274 | 36908 ft | 484 kts | 152° |
| 2026-05-05 21:41 | 3.04206 | -62.68199 | 36906 ft | 482 kts | 152° |
| 2026-05-05 21:41 | 2.98231 | -62.65122 | 36907 ft | 483 kts | 152° |
| 2026-05-05 21:42 | 2.92259 | -62.62047 | 36912 ft | 482 kts | 152° |
| 2026-05-05 21:42 | 2.86287 | -62.58972 | 36912 ft | 483 kts | 152° |
| 2026-05-05 21:43 | 2.80307 | -62.55893 | 36908 ft | 482 kts | 152° |
| 2026-05-05 21:43 | 2.74333 | -62.52819 | 36907 ft | 484 kts | 152° |
| 2026-05-05 21:44 | 2.68367 | -62.49747 | 36911 ft | 481 kts | 153° |
| 2026-05-05 21:44 | 2.62418 | -62.46686 | 36909 ft | 481 kts | 153° |
| 2026-05-05 21:45 | 2.56466 | -62.43623 | 36912 ft | 481 kts | 153° |
| 2026-05-05 21:45 | 2.50510 | -62.40559 | 36917 ft | 481 kts | 153° |
| 2026-05-05 21:46 | 2.44556 | -62.37496 | 36910 ft | 481 kts | 153° |
| 2026-05-05 21:46 | 2.38642 | -62.34454 | 36914 ft | 481 kts | 153° |
| 2026-05-05 21:47 | 2.32698 | -62.31396 | 36920 ft | 479 kts | 153° |
| 2026-05-05 21:47 | 2.26771 | -62.28346 | 36922 ft | 480 kts | 153° |
| 2026-05-05 21:48 | 2.20835 | -62.25287 | 36916 ft | 479 kts | 153° |
| 2026-05-05 21:48 | 2.14903 | -62.22230 | 36918 ft | 480 kts | 153° |
| 2026-05-05 21:49 | 2.08983 | -62.19179 | 36921 ft | 478 kts | 153° |
| 2026-05-05 21:49 | 2.03220 | -62.16211 | 36925 ft | 478 kts | 153° |
| 2026-05-05 21:50 | 1.97434 | -62.13231 | 36928 ft | 475 kts | 153° |
| 2026-05-05 21:50 | 1.91556 | -62.10203 | 36931 ft | 477 kts | 153° |
| 2026-05-05 21:51 | 1.85659 | -62.07166 | 36939 ft | 477 kts | 153° |
| 2026-05-05 21:51 | 1.79765 | -62.04130 | 36945 ft | 477 kts | 153° |
| 2026-05-05 21:52 | 1.70911 | -61.99571 | 36946 ft | 478 kts | 153° |
| 2026-05-05 21:53 | 1.65027 | -61.96542 | 36947 ft | 472 kts | 152° |
| 2026-05-05 21:53 | 1.59185 | -61.93534 | 36945 ft | 472 kts | 152° |
| 2026-05-05 21:54 | 1.53367 | -61.90538 | 36951 ft | 473 kts | 152° |
| 2026-05-05 21:54 | 1.47554 | -61.87545 | 36939 ft | 474 kts | 152° |
| 2026-05-05 21:55 | 1.41688 | -61.84526 | 36947 ft | 473 kts | 152° |
| 2026-05-05 21:55 | 1.35799 | -61.81495 | 36950 ft | 475 kts | 152° |
| 2026-05-05 21:56 | 1.29951 | -61.78485 | 36939 ft | 476 kts | 152° |
| 2026-05-05 21:56 | 1.24033 | -61.75439 | 36936 ft | 474 kts | 152° |
| 2026-05-05 21:57 | 1.18201 | -61.72438 | 36937 ft | 476 kts | 152° |
| 2026-05-05 21:57 | 1.12329 | -61.69416 | 36932 ft | 474 kts | 152° |
| 2026-05-05 21:58 | 1.06459 | -61.66396 | 36940 ft | 474 kts | 152° |
| 2026-05-05 21:58 | 1.00606 | -61.63384 | 36943 ft | 475 kts | 152° |
| 2026-05-05 21:59 | 0.94748 | -61.60370 | 36936 ft | 473 kts | 152° |
| 2026-05-05 21:59 | 0.88891 | -61.57356 | 36934 ft | 474 kts | 152° |
| 2026-05-05 22:00 | 0.83025 | -61.54338 | 36941 ft | 474 kts | 152° |
| 2026-05-05 22:00 | 0.77214 | -61.51348 | 36947 ft | 474 kts | 152° |
| 2026-05-05 22:01 | 0.71365 | -61.48339 | 36943 ft | 474 kts | 152° |
| 2026-05-05 22:01 | 0.65505 | -61.45324 | 36950 ft | 474 kts | 152° |
| 2026-05-05 22:02 | 0.59648 | -61.42311 | 36946 ft | 474 kts | 152° |
| 2026-05-05 22:02 | 0.53778 | -61.39290 | 36948 ft | 474 kts | 152° |
| 2026-05-05 22:03 | 0.47912 | -61.36273 | 36951 ft | 474 kts | 152° |
| 2026-05-05 22:03 | 0.42044 | -61.33255 | 36956 ft | 474 kts | 152° |
| 2026-05-05 22:04 | 0.36193 | -61.30245 | 36950 ft | 473 kts | 152° |
| 2026-05-05 22:04 | 0.30343 | -61.27236 | 36950 ft | 474 kts | 152° |
| 2026-05-05 22:05 | 0.24470 | -61.24215 | 36954 ft | 475 kts | 152° |
| 2026-05-05 22:05 | 0.18594 | -61.21192 | 36958 ft | 475 kts | 152° |
| 2026-05-05 22:06 | 0.12723 | -61.18172 | 36956 ft | 475 kts | 152° |
| 2026-05-05 22:06 | 0.06851 | -61.15152 | 36960 ft | 475 kts | 152° |
| 2026-05-05 22:07 | 0.00978 | -61.12131 | 36958 ft | 475 kts | 152° |
| 2026-05-05 22:07 | -0.04889 | -61.09113 | 36954 ft | 473 kts | 152° |
| 2026-05-05 22:08 | -0.10738 | -61.06104 | 36953 ft | 473 kts | 152° |
| 2026-05-05 22:08 | -0.16596 | -61.03090 | 36955 ft | 473 kts | 152° |
| 2026-05-05 22:09 | -0.22446 | -61.00080 | 36952 ft | 473 kts | 152° |
| 2026-05-05 22:09 | -0.28303 | -60.97068 | 36952 ft | 473 kts | 152° |
| 2026-05-05 22:10 | -0.34138 | -60.94067 | 36960 ft | 473 kts | 152° |
| 2026-05-05 22:10 | -0.39987 | -60.91058 | 36961 ft | 473 kts | 152° |
| 2026-05-05 22:11 | -0.45832 | -60.88051 | 36958 ft | 473 kts | 152° |
| 2026-05-05 22:11 | -0.51684 | -60.85040 | 36961 ft | 473 kts | 152° |
| 2026-05-05 22:12 | -0.57534 | -60.82031 | 36961 ft | 473 kts | 152° |
| 2026-05-05 22:12 | -0.63352 | -60.79038 | 36960 ft | 473 kts | 152° |
| 2026-05-05 22:13 | -0.69201 | -60.76029 | 36961 ft | 471 kts | 152° |
| 2026-05-05 22:13 | -0.75016 | -60.73038 | 36965 ft | 470 kts | 152° |
| 2026-05-05 22:14 | -0.80825 | -60.70048 | 36964 ft | 470 kts | 152° |
| 2026-05-05 22:14 | -0.86639 | -60.67057 | 36966 ft | 470 kts | 152° |
| 2026-05-05 22:15 | -0.92454 | -60.64065 | 36962 ft | 470 kts | 152° |
| 2026-05-05 22:15 | -0.98264 | -60.61075 | 36971 ft | 470 kts | 152° |
| 2026-05-05 22:16 | -1.03048 | -60.58613 | 36970 ft | 470 kts | 152° |
| 2026-05-05 22:16 | -1.08891 | -60.55606 | 36964 ft | 470 kts | 152° |
| 2026-05-05 22:17 | -1.14695 | -60.52620 | 36968 ft | 470 kts | 152° |
| 2026-05-05 22:17 | -1.20502 | -60.49631 | 36968 ft | 470 kts | 152° |
| 2026-05-05 22:18 | -1.26308 | -60.46642 | 36969 ft | 470 kts | 152° |
| 2026-05-05 22:18 | -1.32130 | -60.43645 | 36970 ft | 472 kts | 152° |
| 2026-05-05 22:19 | -1.37964 | -60.40641 | 36970 ft | 472 kts | 151° |
| 2026-05-05 22:19 | -1.43802 | -60.37635 | 36967 ft | 472 kts | 151° |
| 2026-05-05 22:20 | -1.49635 | -60.34631 | 36969 ft | 472 kts | 151° |
| 2026-05-05 22:20 | -1.55471 | -60.31625 | 36967 ft | 472 kts | 151° |
| 2026-05-05 22:21 | -1.61307 | -60.28620 | 36966 ft | 472 kts | 151° |
| 2026-05-05 22:21 | -1.67136 | -60.25617 | 36968 ft | 472 kts | 152° |
| 2026-05-05 22:22 | -1.72944 | -60.22626 | 36970 ft | 473 kts | 152° |
| 2026-05-05 22:22 | -1.78796 | -60.19611 | 36970 ft | 473 kts | 152° |
| 2026-05-05 22:23 | -1.84643 | -60.16600 | 36973 ft | 474 kts | 151° |
| 2026-05-05 22:23 | -1.90515 | -60.13572 | 36967 ft | 475 kts | 151° |
| 2026-05-05 22:24 | -1.96381 | -60.10549 | 36967 ft | 474 kts | 151° |
| 2026-05-05 22:24 | -2.02260 | -60.07518 | 36967 ft | 477 kts | 151° |
| 2026-05-05 22:25 | -2.08164 | -60.04474 | 36969 ft | 478 kts | 151° |
| 2026-05-05 22:25 | -2.14074 | -60.01428 | 36966 ft | 478 kts | 151° |
| 2026-05-05 22:26 | -2.19981 | -59.98383 | 36970 ft | 478 kts | 151° |
| 2026-05-05 22:26 | -2.25894 | -59.95328 | 36969 ft | 478 kts | 151° |
| 2026-05-05 22:27 | -2.31764 | -59.92209 | 36969 ft | 478 kts | 150° |
| 2026-05-05 22:27 | -2.37603 | -59.89094 | 36969 ft | 479 kts | 150° |
| 2026-05-05 22:28 | -2.43479 | -59.85970 | 36970 ft | 479 kts | 150° |
| 2026-05-05 22:28 | -2.49342 | -59.82855 | 36971 ft | 479 kts | 150° |
| 2026-05-05 22:29 | -2.55226 | -59.79729 | 36966 ft | 479 kts | 150° |
| 2026-05-05 22:29 | -2.61111 | -59.76603 | 36964 ft | 479 kts | 150° |
| 2026-05-05 22:30 | -2.66994 | -59.73476 | 36963 ft | 480 kts | 150° |
| 2026-05-05 22:30 | -2.72889 | -59.70344 | 36968 ft | 480 kts | 150° |
| 2026-05-05 22:31 | -2.78779 | -59.67213 | 36960 ft | 480 kts | 150° |
| 2026-05-05 22:31 | -2.84673 | -59.64081 | 36959 ft | 479 kts | 150° |
| 2026-05-05 22:32 | -2.90563 | -59.60950 | 36959 ft | 480 kts | 150° |
| 2026-05-05 22:32 | -2.96469 | -59.57809 | 36959 ft | 482 kts | 150° |
| 2026-05-05 22:33 | -3.02375 | -59.54671 | 36957 ft | 482 kts | 151° |
| 2026-05-05 22:33 | -3.08277 | -59.51549 | 36956 ft | 482 kts | 151° |
| 2026-05-05 22:34 | -3.14228 | -59.48473 | 36957 ft | 482 kts | 151° |
| 2026-05-05 22:34 | -3.20177 | -59.45398 | 36956 ft | 482 kts | 151° |
| 2026-05-05 22:35 | -3.26128 | -59.42311 | 36958 ft | 482 kts | 151° |
| 2026-05-05 22:35 | -3.32077 | -59.39222 | 36954 ft | 480 kts | 151° |
| 2026-05-05 22:36 | -3.38008 | -59.36141 | 36959 ft | 481 kts | 151° |
| 2026-05-05 22:36 | -3.43943 | -59.33062 | 36961 ft | 480 kts | 151° |
| 2026-05-05 22:37 | -3.49829 | -59.30011 | 36956 ft | 478 kts | 151° |
| 2026-05-05 22:37 | -3.55732 | -59.26950 | 36953 ft | 478 kts | 151° |
| 2026-05-05 22:38 | -3.61635 | -59.23888 | 36953 ft | 478 kts | 151° |
| 2026-05-05 22:38 | -3.67539 | -59.20826 | 36958 ft | 478 kts | 151° |
| 2026-05-05 22:39 | -3.73453 | -59.17758 | 36959 ft | 478 kts | 151° |
| 2026-05-05 22:39 | -3.79359 | -59.14694 | 36958 ft | 478 kts | 151° |
| 2026-05-05 22:40 | -3.85259 | -59.11632 | 36955 ft | 478 kts | 151° |
| 2026-05-05 22:40 | -3.91165 | -59.08567 | 36958 ft | 478 kts | 151° |
| 2026-05-05 22:41 | -3.97086 | -59.05493 | 36957 ft | 481 kts | 151° |
| 2026-05-05 22:41 | -4.03020 | -59.02412 | 36958 ft | 481 kts | 151° |
| 2026-05-05 22:42 | -4.08962 | -58.99326 | 36958 ft | 481 kts | 152° |
| 2026-05-05 22:42 | -4.14902 | -58.96241 | 36957 ft | 481 kts | 152° |
| 2026-05-05 22:43 | -4.20806 | -58.93176 | 36949 ft | 481 kts | 151° |
| 2026-05-05 22:43 | -4.26748 | -58.90087 | 36953 ft | 482 kts | 151° |
| 2026-05-05 22:44 | -4.32714 | -58.86987 | 36956 ft | 483 kts | 152° |
| 2026-05-05 22:44 | -4.38680 | -58.83887 | 36956 ft | 483 kts | 152° |
| 2026-05-05 22:45 | -4.44645 | -58.80787 | 36950 ft | 483 kts | 152° |
| 2026-05-05 22:45 | -4.50609 | -58.77686 | 36948 ft | 483 kts | 151° |
| 2026-05-05 22:46 | -4.56580 | -58.74581 | 36948 ft | 483 kts | 151° |
| 2026-05-05 22:46 | -4.62530 | -58.71421 | 36953 ft | 484 kts | 151° |
| 2026-05-05 22:47 | -4.68469 | -58.68251 | 36950 ft | 484 kts | 151° |
| 2026-05-05 22:47 | -4.74405 | -58.65090 | 36947 ft | 484 kts | 151° |
| 2026-05-05 22:48 | -4.80351 | -58.61926 | 36947 ft | 484 kts | 151° |
| 2026-05-05 22:48 | -4.86298 | -58.58761 | 36950 ft | 484 kts | 151° |
| 2026-05-05 22:49 | -4.92242 | -58.55597 | 36947 ft | 484 kts | 151° |
| 2026-05-05 22:49 | -4.98189 | -58.52431 | 36947 ft | 484 kts | 151° |
| 2026-05-05 22:50 | -5.04139 | -58.49263 | 36948 ft | 484 kts | 151° |
| 2026-05-05 22:50 | -5.10086 | -58.46095 | 36950 ft | 486 kts | 151° |
| 2026-05-05 22:51 | -5.15996 | -58.42946 | 36947 ft | 484 kts | 152° |
| 2026-05-05 22:51 | -5.21945 | -58.39777 | 36950 ft | 484 kts | 151° |
| 2026-05-05 22:52 | -5.27876 | -58.36615 | 36953 ft | 483 kts | 152° |
| 2026-05-05 22:52 | -5.33803 | -58.33455 | 36955 ft | 483 kts | 152° |
| 2026-05-05 22:53 | -5.39737 | -58.30292 | 36953 ft | 483 kts | 151° |
| 2026-05-05 22:53 | -5.45683 | -58.27121 | 36954 ft | 484 kts | 151° |
| 2026-05-05 22:54 | -5.51633 | -58.23947 | 36955 ft | 484 kts | 152° |
| 2026-05-05 22:54 | -5.57569 | -58.20779 | 36957 ft | 484 kts | 152° |
| 2026-05-05 22:55 | -5.63509 | -58.17609 | 36956 ft | 484 kts | 152° |
| 2026-05-05 22:55 | -5.69444 | -58.14441 | 36956 ft | 484 kts | 152° |
| 2026-05-05 22:56 | -5.75393 | -58.11265 | 36958 ft | 485 kts | 151° |
| 2026-05-05 22:56 | -5.81349 | -58.08084 | 36958 ft | 485 kts | 151° |
| 2026-05-05 22:57 | -5.87280 | -58.04915 | 36961 ft | 487 kts | 152° |
| 2026-05-05 22:57 | -5.93134 | -58.01787 | 36958 ft | 484 kts | 152° |
| 2026-05-05 22:58 | -5.98978 | -57.98664 | 36956 ft | 486 kts | 152° |
| 2026-05-05 22:58 | -6.04959 | -57.95466 | 36955 ft | 484 kts | 152° |
| 2026-05-05 22:59 | -6.10863 | -57.92309 | 36959 ft | 484 kts | 152° |
| 2026-05-05 22:59 | -6.16810 | -57.89129 | 36958 ft | 485 kts | 152° |
| 2026-05-05 23:00 | -6.25756 | -57.84342 | 36959 ft | 484 kts | 152° |
| 2026-05-05 23:00 | -6.31688 | -57.81168 | 36960 ft | 484 kts | 152° |
| 2026-05-05 23:01 | -6.37635 | -57.77984 | 36958 ft | 484 kts | 152° |
| 2026-05-05 23:01 | -6.43583 | -57.74799 | 36960 ft | 484 kts | 152° |
| 2026-05-05 23:02 | -6.49483 | -57.71639 | 36958 ft | 484 kts | 152° |
| 2026-05-05 23:02 | -6.55425 | -57.68455 | 36958 ft | 483 kts | 152° |
| 2026-05-05 23:03 | -6.61359 | -57.65275 | 36959 ft | 485 kts | 152° |
| 2026-05-05 23:03 | -6.66339 | -57.62606 | 36961 ft | 484 kts | 152° |
| 2026-05-05 23:04 | -6.72285 | -57.59418 | 36953 ft | 485 kts | 152° |
| 2026-05-05 23:04 | -6.78218 | -57.56235 | 36956 ft | 483 kts | 152° |
| 2026-05-05 23:05 | -6.84148 | -57.53054 | 36957 ft | 483 kts | 152° |
| 2026-05-05 23:05 | -6.90087 | -57.49867 | 36957 ft | 485 kts | 152° |
| 2026-05-05 23:06 | -6.96029 | -57.46678 | 36961 ft | 484 kts | 152° |
| 2026-05-05 23:06 | -7.01960 | -57.43493 | 36961 ft | 483 kts | 152° |
| 2026-05-05 23:07 | -7.07898 | -57.40303 | 36961 ft | 485 kts | 152° |
| 2026-05-05 23:07 | -7.13799 | -57.37133 | 36961 ft | 484 kts | 152° |
| 2026-05-05 23:08 | -7.19742 | -57.33939 | 36961 ft | 485 kts | 152° |
| 2026-05-05 23:08 | -7.25682 | -57.30746 | 36961 ft | 485 kts | 152° |
| 2026-05-05 23:09 | -7.31628 | -57.27548 | 36963 ft | 483 kts | 152° |
| 2026-05-05 23:09 | -7.37558 | -57.24358 | 36960 ft | 484 kts | 152° |
| 2026-05-05 23:10 | -7.43487 | -57.21168 | 36962 ft | 483 kts | 152° |
| 2026-05-05 23:10 | -7.49421 | -57.17975 | 36964 ft | 485 kts | 152° |
| 2026-05-05 23:11 | -7.55369 | -57.14772 | 36966 ft | 484 kts | 152° |
| 2026-05-05 23:11 | -7.61312 | -57.11571 | 36964 ft | 486 kts | 152° |
| 2026-05-05 23:12 | -7.67236 | -57.08380 | 36963 ft | 481 kts | 152° |
| 2026-05-05 23:12 | -7.73148 | -57.05194 | 36967 ft | 483 kts | 152° |
| 2026-05-05 23:13 | -7.79016 | -57.02030 | 36970 ft | 482 kts | 152° |
| 2026-05-05 23:13 | -7.84915 | -56.98849 | 36973 ft | 482 kts | 152° |
| 2026-05-05 23:14 | -7.90822 | -56.95663 | 36973 ft | 481 kts | 152° |
| 2026-05-05 23:14 | -7.96723 | -56.92478 | 36976 ft | 481 kts | 152° |
| 2026-05-05 23:15 | -8.02608 | -56.89302 | 36977 ft | 481 kts | 152° |
| 2026-05-05 23:15 | -8.08495 | -56.86124 | 36980 ft | 481 kts | 152° |
| 2026-05-05 23:16 | -8.14391 | -56.82937 | 36981 ft | 480 kts | 152° |
| 2026-05-05 23:16 | -8.20282 | -56.79752 | 36982 ft | 480 kts | 152° |
| 2026-05-05 23:17 | -8.26170 | -56.76568 | 36977 ft | 481 kts | 152° |
| 2026-05-05 23:17 | -8.32032 | -56.73399 | 36983 ft | 481 kts | 152° |
| 2026-05-05 23:18 | -8.37924 | -56.70210 | 36979 ft | 482 kts | 152° |
| 2026-05-05 23:18 | -8.43835 | -56.67011 | 36982 ft | 482 kts | 152° |
| 2026-05-05 23:19 | -8.49741 | -56.63814 | 36979 ft | 481 kts | 152° |
| 2026-05-05 23:19 | -8.55644 | -56.60617 | 36976 ft | 482 kts | 152° |
| 2026-05-05 23:20 | -8.61542 | -56.57421 | 36973 ft | 482 kts | 152° |
| 2026-05-05 23:20 | -8.67439 | -56.54226 | 36976 ft | 481 kts | 152° |
| 2026-05-05 23:21 | -8.73324 | -56.51035 | 36967 ft | 481 kts | 152° |
| 2026-05-05 23:21 | -8.79217 | -56.47838 | 36972 ft | 481 kts | 152° |
| 2026-05-05 23:22 | -8.85105 | -56.44643 | 36966 ft | 481 kts | 152° |
| 2026-05-05 23:22 | -8.90998 | -56.41444 | 36964 ft | 481 kts | 152° |
| 2026-05-05 23:23 | -8.96880 | -56.38251 | 36965 ft | 481 kts | 152° |
| 2026-05-05 23:23 | -9.02770 | -56.35051 | 36968 ft | 481 kts | 152° |
| 2026-05-05 23:24 | -9.08659 | -56.31851 | 36960 ft | 481 kts | 152° |
| 2026-05-05 23:24 | -9.14551 | -56.28648 | 36958 ft | 481 kts | 152° |
| 2026-05-05 23:25 | -9.20421 | -56.25456 | 36963 ft | 481 kts | 152° |
| 2026-05-05 23:25 | -9.26294 | -56.22262 | 36966 ft | 481 kts | 152° |
| 2026-05-05 23:26 | -9.32187 | -56.19054 | 36959 ft | 481 kts | 152° |
| 2026-05-05 23:26 | -9.38083 | -56.15844 | 36953 ft | 481 kts | 152° |
| 2026-05-05 23:27 | -9.43978 | -56.12634 | 36967 ft | 481 kts | 153° |
| 2026-05-05 23:27 | -9.49844 | -56.09437 | 36960 ft | 481 kts | 153° |
| 2026-05-05 23:28 | -9.55745 | -56.06221 | 36956 ft | 481 kts | 153° |
| 2026-05-05 23:28 | -9.61587 | -56.03036 | 36958 ft | 481 kts | 153° |
| 2026-05-05 23:29 | -9.67494 | -55.99814 | 36956 ft | 481 kts | 153° |
| 2026-05-05 23:29 | -9.73340 | -55.96587 | 36956 ft | 481 kts | 152° |
| 2026-05-05 23:30 | -9.79190 | -55.93294 | 36962 ft | 481 kts | 152° |
| 2026-05-05 23:30 | -9.85047 | -55.90005 | 36960 ft | 481 kts | 152° |
| 2026-05-05 23:31 | -9.90899 | -55.86723 | 36960 ft | 481 kts | 152° |
| 2026-05-05 23:31 | -9.96742 | -55.83447 | 36962 ft | 481 kts | 152° |
| 2026-05-05 23:32 | -10.02548 | -55.80190 | 36963 ft | 481 kts | 152° |
| 2026-05-05 23:32 | -10.08427 | -55.76890 | 36962 ft | 480 kts | 152° |
| 2026-05-05 23:33 | -10.14265 | -55.73613 | 36964 ft | 481 kts | 152° |
| 2026-05-05 23:33 | -10.20065 | -55.70355 | 36964 ft | 480 kts | 152° |
| 2026-05-05 23:34 | -10.25907 | -55.67073 | 36962 ft | 480 kts | 152° |
| 2026-05-05 23:34 | -10.31739 | -55.63795 | 36962 ft | 479 kts | 152° |
| 2026-05-05 23:35 | -10.37569 | -55.60517 | 36963 ft | 479 kts | 152° |
| 2026-05-05 23:35 | -10.43391 | -55.57242 | 36966 ft | 479 kts | 152° |
| 2026-05-05 23:36 | -10.49219 | -55.53962 | 36962 ft | 479 kts | 152° |
| 2026-05-05 23:36 | -10.55050 | -55.50679 | 36967 ft | 479 kts | 152° |
| 2026-05-05 23:37 | -10.60872 | -55.47399 | 36965 ft | 478 kts | 152° |
| 2026-05-05 23:37 | -10.66691 | -55.44120 | 36966 ft | 478 kts | 152° |
| 2026-05-05 23:38 | -10.72510 | -55.40840 | 36970 ft | 478 kts | 152° |
| 2026-05-05 23:38 | -10.78327 | -55.37559 | 36969 ft | 478 kts | 152° |
| 2026-05-05 23:39 | -10.84130 | -55.34284 | 36976 ft | 478 kts | 152° |
| 2026-05-05 23:39 | -10.89934 | -55.31007 | 36974 ft | 477 kts | 152° |
| 2026-05-05 23:40 | -10.95690 | -55.27757 | 36975 ft | 477 kts | 152° |
| 2026-05-05 23:40 | -11.01491 | -55.24479 | 36973 ft | 477 kts | 152° |
| 2026-05-05 23:41 | -11.07288 | -55.21202 | 36977 ft | 477 kts | 152° |
| 2026-05-05 23:41 | -11.13090 | -55.17919 | 36979 ft | 477 kts | 152° |
| 2026-05-05 23:42 | -11.18876 | -55.14643 | 36978 ft | 476 kts | 152° |
| 2026-05-05 23:42 | -11.24671 | -55.11362 | 36977 ft | 477 kts | 152° |
| 2026-05-05 23:43 | -11.30463 | -55.08080 | 36977 ft | 476 kts | 152° |
| 2026-05-05 23:43 | -11.36255 | -55.04796 | 36979 ft | 476 kts | 152° |
| 2026-05-05 23:44 | -11.42043 | -55.01514 | 36979 ft | 476 kts | 152° |
| 2026-05-05 23:44 | -11.47821 | -54.98234 | 36979 ft | 475 kts | 152° |
| 2026-05-05 23:45 | -11.53590 | -54.94960 | 36979 ft | 475 kts | 152° |
| 2026-05-05 23:45 | -11.59372 | -54.91676 | 36978 ft | 475 kts | 152° |
| 2026-05-05 23:46 | -11.65101 | -54.88421 | 36982 ft | 475 kts | 152° |
| 2026-05-05 23:46 | -11.70867 | -54.85143 | 36988 ft | 475 kts | 152° |
| 2026-05-05 23:47 | -11.76617 | -54.81872 | 36982 ft | 474 kts | 152° |
| 2026-05-05 23:47 | -11.82370 | -54.78599 | 36982 ft | 474 kts | 152° |
| 2026-05-05 23:48 | -11.88131 | -54.75319 | 36985 ft | 474 kts | 152° |
| 2026-05-05 23:48 | -11.93878 | -54.72046 | 36985 ft | 474 kts | 152° |
| 2026-05-05 23:49 | -11.99637 | -54.68764 | 36986 ft | 474 kts | 152° |
| 2026-05-05 23:49 | -12.05383 | -54.65488 | 36985 ft | 474 kts | 152° |
| 2026-05-05 23:50 | -12.11129 | -54.62210 | 36985 ft | 473 kts | 152° |
| 2026-05-05 23:50 | -12.15912 | -54.59481 | 36985 ft | 474 kts | 152° |
| 2026-05-05 23:51 | -12.21653 | -54.56202 | 36985 ft | 474 kts | 152° |
| 2026-05-05 23:51 | -12.27399 | -54.52920 | 36985 ft | 474 kts | 152° |
| 2026-05-05 23:52 | -12.33154 | -54.49631 | 36985 ft | 474 kts | 152° |
| 2026-05-05 23:52 | -12.38900 | -54.46346 | 36983 ft | 474 kts | 153° |
| 2026-05-05 23:53 | -12.44649 | -54.43057 | 36987 ft | 474 kts | 153° |
| 2026-05-05 23:53 | -12.50395 | -54.39769 | 36991 ft | 474 kts | 152° |
| 2026-05-05 23:54 | -12.56152 | -54.36472 | 36991 ft | 474 kts | 152° |
| 2026-05-05 23:54 | -12.61905 | -54.33176 | 36991 ft | 474 kts | 152° |
| 2026-05-05 23:55 | -12.67660 | -54.29878 | 36988 ft | 474 kts | 152° |
| 2026-05-05 23:55 | -12.73413 | -54.26579 | 36987 ft | 474 kts | 152° |
| 2026-05-05 23:56 | -12.79167 | -54.23278 | 36990 ft | 474 kts | 153° |
| 2026-05-05 23:56 | -12.84919 | -54.19976 | 36994 ft | 474 kts | 153° |
| 2026-05-05 23:57 | -12.90670 | -54.16674 | 36991 ft | 474 kts | 153° |
| 2026-05-05 23:57 | -12.96415 | -54.13373 | 36996 ft | 474 kts | 153° |
| 2026-05-05 23:58 | -13.02160 | -54.10068 | 37002 ft | 474 kts | 153° |
| 2026-05-05 23:58 | -13.07906 | -54.06760 | 37003 ft | 474 kts | 153° |
| 2026-05-05 23:59 | -13.13608 | -54.03475 | 37004 ft | 474 kts | 153° |
| 2026-05-05 23:59 | -13.19355 | -54.00164 | 37005 ft | 474 kts | 153° |
| 2026-05-06 00:00 | -13.25104 | -53.96848 | 37010 ft | 474 kts | 153° |
| 2026-05-06 00:00 | -13.30857 | -53.93529 | 37009 ft | 474 kts | 153° |
| 2026-05-06 00:01 | -13.36596 | -53.90216 | 37012 ft | 474 kts | 153° |
| 2026-05-06 00:01 | -13.42342 | -53.86897 | 37008 ft | 474 kts | 153° |
| 2026-05-06 00:02 | -13.48096 | -53.83573 | 37012 ft | 474 kts | 153° |
| 2026-05-06 00:02 | -13.53837 | -53.80253 | 37014 ft | 474 kts | 153° |
| 2026-05-06 00:03 | -13.59584 | -53.76928 | 37014 ft | 474 kts | 153° |
| 2026-05-06 00:03 | -13.65332 | -53.73601 | 37015 ft | 474 kts | 153° |
| 2026-05-06 00:04 | -13.71075 | -53.70275 | 37014 ft | 474 kts | 153° |
| 2026-05-06 00:04 | -13.76826 | -53.66942 | 37018 ft | 474 kts | 153° |
| 2026-05-06 00:05 | -13.85439 | -53.61947 | 37018 ft | 474 kts | 153° |
| 2026-05-06 00:06 | -13.91180 | -53.58615 | 37021 ft | 474 kts | 153° |
| 2026-05-06 00:06 | -13.96925 | -53.55281 | 37023 ft | 474 kts | 153° |
| 2026-05-06 00:07 | -14.02638 | -53.51965 | 37021 ft | 474 kts | 153° |
| 2026-05-06 00:07 | -14.08370 | -53.48636 | 37022 ft | 474 kts | 153° |
| 2026-05-06 00:08 | -14.14116 | -53.45297 | 37022 ft | 474 kts | 153° |
| 2026-05-06 00:08 | -14.19848 | -53.41963 | 37024 ft | 473 kts | 153° |
| 2026-05-06 00:09 | -14.25577 | -53.38630 | 37023 ft | 473 kts | 153° |
| 2026-05-06 00:09 | -14.31312 | -53.35292 | 37029 ft | 473 kts | 153° |
| 2026-05-06 00:10 | -14.37037 | -53.31956 | 37026 ft | 473 kts | 153° |
| 2026-05-06 00:10 | -14.42505 | -53.28768 | 37031 ft | 471 kts | 153° |
| 2026-05-06 00:11 | -14.47531 | -53.25838 | 37031 ft | 472 kts | 153° |
| 2026-05-06 00:11 | -14.52876 | -53.22719 | 37032 ft | 472 kts | 153° |
| 2026-05-06 00:12 | -14.58080 | -53.19681 | 37031 ft | 472 kts | 153° |
| 2026-05-06 00:12 | -14.63384 | -53.16583 | 37033 ft | 472 kts | 153° |
| 2026-05-06 00:13 | -14.68788 | -53.13424 | 37032 ft | 470 kts | 153° |
| 2026-05-06 00:13 | -14.73679 | -53.10378 | 37035 ft | 472 kts | 150° |
| 2026-05-06 00:14 | -14.79077 | -53.06788 | 37033 ft | 472 kts | 150° |
| 2026-05-06 00:14 | -14.84103 | -53.03457 | 37034 ft | 472 kts | 150° |
| 2026-05-06 00:15 | -14.88529 | -53.00520 | 37036 ft | 472 kts | 150° |
| 2026-05-06 00:15 | -14.93071 | -52.97500 | 37036 ft | 470 kts | 150° |
| 2026-05-06 00:16 | -14.97995 | -52.94227 | 37038 ft | 470 kts | 150° |
| 2026-05-06 00:16 | -15.02552 | -52.91196 | 37038 ft | 470 kts | 150° |
| 2026-05-06 00:17 | -15.07745 | -52.87739 | 37036 ft | 470 kts | 150° |
| 2026-05-06 00:17 | -15.13238 | -52.84081 | 37042 ft | 470 kts | 150° |
| 2026-05-06 00:18 | -15.18735 | -52.80417 | 37042 ft | 470 kts | 150° |
| 2026-05-06 00:18 | -15.24237 | -52.76748 | 37045 ft | 470 kts | 150° |
| 2026-05-06 00:19 | -15.29727 | -52.73084 | 37049 ft | 469 kts | 150° |
| 2026-05-06 00:19 | -15.35217 | -52.69418 | 37048 ft | 469 kts | 150° |
| 2026-05-06 00:20 | -15.40690 | -52.65762 | 37055 ft | 469 kts | 150° |
| 2026-05-06 00:20 | -15.46168 | -52.62097 | 37053 ft | 468 kts | 150° |
| 2026-05-06 00:21 | -15.51594 | -52.58468 | 37051 ft | 469 kts | 150° |
| 2026-05-06 00:21 | -15.57074 | -52.54800 | 37050 ft | 469 kts | 150° |
| 2026-05-06 00:22 | -15.62537 | -52.51141 | 37046 ft | 468 kts | 151° |
| 2026-05-06 00:22 | -15.67988 | -52.47486 | 37063 ft | 466 kts | 151° |
| 2026-05-06 00:23 | -15.73423 | -52.43840 | 37070 ft | 466 kts | 151° |
| 2026-05-06 00:23 | -15.78866 | -52.40187 | 37075 ft | 466 kts | 151° |
| 2026-05-06 00:24 | -15.84315 | -52.36528 | 37075 ft | 466 kts | 151° |
| 2026-05-06 00:24 | -15.89749 | -52.32876 | 37075 ft | 466 kts | 151° |
| 2026-05-06 00:25 | -15.95167 | -52.29232 | 37071 ft | 464 kts | 151° |
| 2026-05-06 00:25 | -16.00537 | -52.25617 | 37064 ft | 463 kts | 152° |
| 2026-05-06 00:26 | -16.05940 | -52.21981 | 37058 ft | 463 kts | 151° |
| 2026-05-06 00:26 | -16.11340 | -52.18342 | 37057 ft | 463 kts | 151° |
| 2026-05-06 00:27 | -16.16741 | -52.14700 | 37054 ft | 462 kts | 152° |
| 2026-05-06 00:27 | -16.22122 | -52.11069 | 37062 ft | 462 kts | 152° |
| 2026-05-06 00:28 | -16.27503 | -52.07438 | 37057 ft | 462 kts | 152° |
| 2026-05-06 00:28 | -16.32875 | -52.03764 | 37063 ft | 462 kts | 150° |
| 2026-05-06 00:29 | -16.38160 | -52.00016 | 37066 ft | 462 kts | 150° |
| 2026-05-06 00:29 | -16.43454 | -51.96267 | 37073 ft | 460 kts | 151° |
| 2026-05-06 00:30 | -16.48754 | -51.92527 | 37075 ft | 461 kts | 151° |
| 2026-05-06 00:30 | -16.54058 | -51.88785 | 37081 ft | 461 kts | 151° |
| 2026-05-06 00:31 | -16.59361 | -51.85041 | 37089 ft | 461 kts | 151° |
| 2026-05-06 00:31 | -16.64658 | -51.81298 | 37092 ft | 460 kts | 151° |
| 2026-05-06 00:32 | -16.69933 | -51.77566 | 37094 ft | 458 kts | 151° |
| 2026-05-06 00:32 | -16.75204 | -51.73839 | 37094 ft | 458 kts | 151° |
| 2026-05-06 00:33 | -16.80473 | -51.70108 | 37102 ft | 458 kts | 151° |
| 2026-05-06 00:33 | -16.85755 | -51.66364 | 37103 ft | 458 kts | 151° |
| 2026-05-06 00:34 | -16.91022 | -51.62622 | 37109 ft | 457 kts | 151° |
| 2026-05-06 00:34 | -16.96286 | -51.58882 | 37105 ft | 458 kts | 151° |
| 2026-05-06 00:35 | -17.01539 | -51.55147 | 37119 ft | 456 kts | 151° |
| 2026-05-06 00:35 | -17.06782 | -51.51418 | 37120 ft | 456 kts | 151° |
| 2026-05-06 00:36 | -17.12028 | -51.47683 | 37129 ft | 456 kts | 152° |
| 2026-05-06 00:36 | -17.17250 | -51.43961 | 37126 ft | 455 kts | 152° |
| 2026-05-06 00:37 | -17.22476 | -51.40236 | 37123 ft | 455 kts | 152° |
| 2026-05-06 00:37 | -17.27668 | -51.36533 | 37137 ft | 455 kts | 152° |
| 2026-05-06 00:38 | -17.32894 | -51.32802 | 37128 ft | 455 kts | 152° |
| 2026-05-06 00:38 | -17.38102 | -51.29080 | 37123 ft | 453 kts | 152° |
| 2026-05-06 00:39 | -17.43310 | -51.25367 | 37124 ft | 453 kts | 152° |
| 2026-05-06 00:39 | -17.47670 | -51.22258 | 37126 ft | 453 kts | 152° |
| 2026-05-06 00:40 | -17.53723 | -51.17938 | 37139 ft | 453 kts | 152° |
| 2026-05-06 00:40 | -17.58088 | -51.14820 | 37134 ft | 453 kts | 152° |
| 2026-05-06 00:41 | -17.63260 | -51.11122 | 37131 ft | 453 kts | 152° |
| 2026-05-06 00:41 | -17.68467 | -51.07397 | 37124 ft | 453 kts | 152° |
| 2026-05-06 00:42 | -17.73676 | -51.03668 | 37120 ft | 454 kts | 152° |
| 2026-05-06 00:42 | -17.78882 | -50.99938 | 37118 ft | 453 kts | 152° |
| 2026-05-06 00:43 | -17.84079 | -50.96211 | 37121 ft | 452 kts | 152° |
| 2026-05-06 00:43 | -17.89267 | -50.92490 | 37128 ft | 453 kts | 152° |
| 2026-05-06 00:44 | -17.94464 | -50.88755 | 37131 ft | 453 kts | 152° |
| 2026-05-06 00:44 | -17.99645 | -50.85028 | 37127 ft | 451 kts | 152° |
| 2026-05-06 00:45 | -18.04822 | -50.81303 | 37132 ft | 451 kts | 152° |
| 2026-05-06 00:45 | -18.09990 | -50.77580 | 37125 ft | 450 kts | 152° |
| 2026-05-06 00:46 | -18.15137 | -50.73873 | 37125 ft | 450 kts | 152° |
| 2026-05-06 00:46 | -18.20305 | -50.70146 | 37125 ft | 451 kts | 152° |
| 2026-05-06 00:47 | -18.25439 | -50.66440 | 37125 ft | 450 kts | 152° |
| 2026-05-06 00:47 | -18.30590 | -50.62718 | 37119 ft | 448 kts | 152° |
| 2026-05-06 00:48 | -18.35742 | -50.58998 | 37117 ft | 449 kts | 152° |
| 2026-05-06 00:48 | -18.40888 | -50.55274 | 37117 ft | 449 kts | 152° |
| 2026-05-06 00:49 | -18.46028 | -50.51554 | 37114 ft | 449 kts | 152° |
| 2026-05-06 00:49 | -18.51168 | -50.47828 | 37114 ft | 448 kts | 152° |
| 2026-05-06 00:50 | -18.56262 | -50.44132 | 37114 ft | 448 kts | 152° |
| 2026-05-06 00:50 | -18.61383 | -50.40414 | 37113 ft | 447 kts | 153° |
| 2026-05-06 00:51 | -18.66504 | -50.36694 | 37105 ft | 447 kts | 153° |
| 2026-05-06 00:51 | -18.71628 | -50.32969 | 37121 ft | 447 kts | 153° |
| 2026-05-06 00:52 | -18.76743 | -50.29246 | 37105 ft | 447 kts | 153° |
| 2026-05-06 00:52 | -18.81861 | -50.25520 | 37106 ft | 447 kts | 153° |
| 2026-05-06 00:53 | -18.86978 | -50.21791 | 37111 ft | 447 kts | 153° |
| 2026-05-06 00:53 | -18.92084 | -50.18067 | 37109 ft | 446 kts | 153° |
| 2026-05-06 00:54 | -18.97176 | -50.14349 | 37110 ft | 445 kts | 153° |
| 2026-05-06 00:54 | -19.02238 | -50.10654 | 37115 ft | 445 kts | 153° |
| 2026-05-06 00:55 | -19.07328 | -50.06933 | 37114 ft | 445 kts | 153° |
| 2026-05-06 00:55 | -19.12417 | -50.03211 | 37111 ft | 446 kts | 153° |
| 2026-05-06 00:56 | -19.17516 | -49.99478 | 37118 ft | 446 kts | 153° |
| 2026-05-06 00:56 | -19.22602 | -49.95752 | 37128 ft | 445 kts | 153° |
| 2026-05-06 00:57 | -19.27684 | -49.92026 | 37121 ft | 445 kts | 153° |
| 2026-05-06 00:57 | -19.32755 | -49.88305 | 37117 ft | 445 kts | 153° |
| 2026-05-06 00:58 | -19.37831 | -49.84578 | 37136 ft | 445 kts | 153° |
| 2026-05-06 00:58 | -19.42917 | -49.80841 | 37119 ft | 445 kts | 153° |
| 2026-05-06 00:59 | -19.48009 | -49.77097 | 37123 ft | 445 kts | 153° |
| 2026-05-06 00:59 | -19.53087 | -49.73359 | 37126 ft | 444 kts | 153° |
| 2026-05-06 01:00 | -19.58166 | -49.69618 | 37127 ft | 445 kts | 153° |
| 2026-05-06 01:00 | -19.63241 | -49.65877 | 37123 ft | 444 kts | 153° |
| 2026-05-06 01:01 | -19.68282 | -49.62159 | 37122 ft | 445 kts | 153° |
| 2026-05-06 01:01 | -19.73395 | -49.58384 | 37124 ft | 445 kts | 153° |
| 2026-05-06 01:02 | -19.78473 | -49.54632 | 37124 ft | 445 kts | 153° |
| 2026-05-06 01:02 | -19.83545 | -49.50881 | 37127 ft | 444 kts | 153° |
| 2026-05-06 01:03 | -19.88612 | -49.47131 | 37124 ft | 445 kts | 153° |
| 2026-05-06 01:03 | -19.93657 | -49.43397 | 37123 ft | 445 kts | 153° |
| 2026-05-06 01:04 | -19.98722 | -49.39640 | 37124 ft | 444 kts | 153° |
| 2026-05-06 01:04 | -20.03791 | -49.35881 | 37125 ft | 444 kts | 153° |
| 2026-05-06 01:05 | -20.08859 | -49.32120 | 37124 ft | 445 kts | 153° |
| 2026-05-06 01:05 | -20.13922 | -49.28358 | 37125 ft | 445 kts | 153° |
| 2026-05-06 01:06 | -20.18985 | -49.24593 | 37129 ft | 444 kts | 153° |
| 2026-05-06 01:06 | -20.24051 | -49.20824 | 37138 ft | 445 kts | 153° |
| 2026-05-06 01:07 | -20.29105 | -49.17060 | 37127 ft | 445 kts | 153° |
| 2026-05-06 01:07 | -20.34109 | -49.13329 | 37127 ft | 445 kts | 153° |
| 2026-05-06 01:08 | -20.38319 | -49.10189 | 37131 ft | 445 kts | 153° |
| 2026-05-06 01:08 | -20.43392 | -49.06402 | 37127 ft | 445 kts | 153° |
| 2026-05-06 01:09 | -20.48458 | -49.02617 | 37129 ft | 445 kts | 153° |
| 2026-05-06 01:09 | -20.53495 | -48.98851 | 37129 ft | 445 kts | 153° |
| 2026-05-06 01:10 | -20.58561 | -48.95059 | 37130 ft | 445 kts | 153° |
| 2026-05-06 01:10 | -20.63663 | -48.91238 | 37130 ft | 445 kts | 153° |
| 2026-05-06 01:11 | -20.68745 | -48.87429 | 37130 ft | 447 kts | 153° |
| 2026-05-06 01:11 | -20.73824 | -48.83618 | 37132 ft | 446 kts | 153° |
| 2026-05-06 01:12 | -20.78871 | -48.79828 | 37136 ft | 447 kts | 153° |
| 2026-05-06 01:12 | -20.83954 | -48.76007 | 37135 ft | 446 kts | 153° |
| 2026-05-06 01:13 | -20.89032 | -48.72188 | 37136 ft | 447 kts | 153° |
| 2026-05-06 01:13 | -20.94117 | -48.68360 | 37136 ft | 447 kts | 153° |
| 2026-05-06 01:14 | -21.01736 | -48.62617 | 37137 ft | 446 kts | 153° |
| 2026-05-06 01:14 | -21.06808 | -48.58791 | 37148 ft | 446 kts | 154° |
| 2026-05-06 01:15 | -21.11871 | -48.54968 | 37141 ft | 446 kts | 153° |
| 2026-05-06 01:15 | -21.16945 | -48.51133 | 37139 ft | 446 kts | 153° |
| 2026-05-06 01:16 | -21.22004 | -48.47306 | 37142 ft | 446 kts | 153° |
| 2026-05-06 01:16 | -21.27044 | -48.43491 | 37158 ft | 446 kts | 153° |
| 2026-05-06 01:17 | -21.32100 | -48.39659 | 37142 ft | 445 kts | 154° |
| 2026-05-06 01:17 | -21.37156 | -48.35826 | 37151 ft | 445 kts | 153° |
| 2026-05-06 01:18 | -21.42213 | -48.31988 | 37152 ft | 445 kts | 153° |
| 2026-05-06 01:18 | -21.47269 | -48.28147 | 37158 ft | 445 kts | 154° |
| 2026-05-06 01:19 | -21.52309 | -48.24315 | 37152 ft | 445 kts | 153° |
| 2026-05-06 01:19 | -21.57013 | -48.20735 | 37157 ft | 444 kts | 154° |
| 2026-05-06 01:20 | -21.62048 | -48.16900 | 37157 ft | 444 kts | 154° |
| 2026-05-06 01:20 | -21.67086 | -48.13060 | 37166 ft | 444 kts | 154° |
| 2026-05-06 01:21 | -21.72092 | -48.09240 | 37162 ft | 444 kts | 154° |
| 2026-05-06 01:21 | -21.77257 | -48.05716 | 37161 ft | 433 kts | 163° |
| 2026-05-06 01:22 | -21.82852 | -48.03734 | 37167 ft | 418 kts | 176° |
| 2026-05-06 01:22 | -21.88566 | -48.03107 | 37169 ft | 412 kts | 182° |
| 2026-05-06 01:23 | -21.94284 | -48.02612 | 37172 ft | 412 kts | 181° |
| 2026-05-06 01:23 | -22.00003 | -48.02115 | 37170 ft | 412 kts | 181° |
| 2026-05-06 01:24 | -22.05724 | -48.01619 | 37174 ft | 410 kts | 181° |
| 2026-05-06 01:24 | -22.08519 | -48.01373 | 37173 ft | 396 kts | 182° |
| 2026-05-06 01:24 | -22.11216 | -48.01133 | 37183 ft | 383 kts | 182° |
| 2026-05-06 01:25 | -22.16525 | -48.00680 | 37171 ft | 387 kts | 182° |
| 2026-05-06 01:25 | -22.21903 | -48.00221 | 37185 ft | 387 kts | 182° |
| 2026-05-06 01:26 | -22.27266 | -47.99756 | 37176 ft | 387 kts | 182° |
| 2026-05-06 01:26 | -22.32638 | -47.99291 | 37179 ft | 387 kts | 182° |
| 2026-05-06 01:27 | -22.38004 | -47.98825 | 37176 ft | 387 kts | 182° |
| 2026-05-06 01:27 | -22.43371 | -47.98359 | 37020 ft | 387 kts | 182° |
| 2026-05-06 01:28 | -22.46066 | -47.98127 | 36388 ft | 392 kts | 182° |
| 2026-05-06 01:28 | -22.48831 | -47.97893 | 35315 ft | 405 kts | 181° |
| 2026-05-06 01:28 | -22.51652 | -47.97652 | 34559 ft | 409 kts | 180° |
| 2026-05-06 01:28 | -22.54493 | -47.97406 | 34018 ft | 411 kts | 180° |
| 2026-05-06 01:29 | -22.57353 | -47.97156 | 33273 ft | 413 kts | 180° |
| 2026-05-06 01:29 | -22.60216 | -47.96905 | 32548 ft | 414 kts | 180° |
| 2026-05-06 01:29 | -22.63088 | -47.96654 | 31800 ft | 414 kts | 180° |
| 2026-05-06 01:29 | -22.65954 | -47.96404 | 31208 ft | 411 kts | 179° |
| 2026-05-06 01:30 | -22.68784 | -47.96154 | 30691 ft | 407 kts | 179° |
| 2026-05-06 01:30 | -22.71564 | -47.95611 | 30101 ft | 410 kts | 168° |
| 2026-05-06 01:30 | -22.74200 | -47.94467 | 29570 ft | 410 kts | 157° |
| 2026-05-06 01:30 | -22.76604 | -47.92769 | 29034 ft | 413 kts | 146° |
| 2026-05-06 01:31 | -22.78654 | -47.90584 | 28478 ft | 416 kts | 134° |
| 2026-05-06 01:31 | -22.80305 | -47.87937 | 27919 ft | 442 kts | 123° |
| 2026-05-06 01:32 | -22.85843 | -47.76419 | 26500 ft | 431 kts | 122° |
| 2026-05-06 01:32 | -22.87236 | -47.73525 | 26283 ft | 437 kts | 122° |
| 2026-05-06 01:32 | -22.88647 | -47.70600 | 26038 ft | 437 kts | 121° |
| 2026-05-06 01:33 | -22.90048 | -47.67690 | 25796 ft | 434 kts | 121° |
| 2026-05-06 01:33 | -22.91440 | -47.64797 | 25555 ft | 432 kts | 121° |
| 2026-05-06 01:33 | -22.92829 | -47.61910 | 25315 ft | 431 kts | 121° |
| 2026-05-06 01:33 | -22.94206 | -47.59043 | 25077 ft | 429 kts | 121° |
| 2026-05-06 01:34 | -22.95583 | -47.56176 | 24836 ft | 427 kts | 121° |
| 2026-05-06 01:34 | -22.96951 | -47.53325 | 24600 ft | 426 kts | 121° |
| 2026-05-06 01:34 | -22.98310 | -47.50493 | 24367 ft | 424 kts | 121° |
| 2026-05-06 01:34 | -22.99667 | -47.47662 | 24219 ft | 422 kts | 120° |
| 2026-05-06 01:35 | -23.01019 | -47.44841 | 24070 ft | 420 kts | 120° |
| 2026-05-06 01:35 | -23.02366 | -47.42030 | 23381 ft | 418 kts | 120° |
| 2026-05-06 01:35 | -23.03695 | -47.39253 | 23043 ft | 415 kts | 120° |
| 2026-05-06 01:35 | -23.05002 | -47.36521 | 22851 ft | 413 kts | 120° |
| 2026-05-06 01:36 | -23.06326 | -47.33755 | 22510 ft | 412 kts | 120° |
| 2026-05-06 01:36 | -23.07642 | -47.31002 | 22162 ft | 409 kts | 120° |
| 2026-05-06 01:36 | -23.08948 | -47.28269 | 21822 ft | 406 kts | 120° |
| 2026-05-06 01:36 | -23.10240 | -47.25564 | 21476 ft | 404 kts | 120° |
| 2026-05-06 01:37 | -23.11522 | -47.22857 | 21127 ft | 403 kts | 117° |
| 2026-05-06 01:37 | -23.12366 | -47.19974 | 20786 ft | 404 kts | 101° |
| 2026-05-06 01:37 | -23.12453 | -47.16926 | 20443 ft | 405 kts | 85° |
| 2026-05-06 01:37 | -23.11768 | -47.13979 | 20102 ft | 406 kts | 69° |
| 2026-05-06 01:38 | -23.10353 | -47.11340 | 19761 ft | 405 kts | 52° |
| 2026-05-06 01:38 | -23.08460 | -47.09084 | 19423 ft | 404 kts | 46° |
| 2026-05-06 01:38 | -23.06474 | -47.06949 | 19256 ft | 399 kts | 45° |
| 2026-05-06 01:38 | -23.04520 | -47.04831 | 18738 ft | 397 kts | 46° |
| 2026-05-06 01:39 | -23.02585 | -47.02663 | 17745 ft | 401 kts | 47° |
| 2026-05-06 01:39 | -23.00674 | -47.00460 | 17142 ft | 398 kts | 48° |
| 2026-05-06 01:39 | -22.98819 | -46.98294 | 16930 ft | 384 kts | 48° |
| 2026-05-06 01:39 | -22.97048 | -46.96215 | 16739 ft | 365 kts | 48° |
| 2026-05-06 01:40 | -22.95380 | -46.94255 | 16550 ft | 344 kts | 48° |
| 2026-05-06 01:40 | -22.93788 | -46.92383 | 16156 ft | 333 kts | 48° |
| 2026-05-06 01:40 | -22.92227 | -46.90549 | 15572 ft | 329 kts | 49° |
| 2026-05-06 01:40 | -22.90688 | -46.88740 | 15002 ft | 325 kts | 49° |
| 2026-05-06 01:41 | -22.89163 | -46.86951 | 14471 ft | 319 kts | 49° |
| 2026-05-06 01:41 | -22.87691 | -46.85220 | 14285 ft | 310 kts | 50° |
| 2026-05-06 01:41 | -22.86379 | -46.83326 | 14219 ft | 316 kts | 59° |
| 2026-05-06 01:41 | -22.85324 | -46.81260 | 14204 ft | 312 kts | 63° |
| 2026-05-06 01:42 | -22.84290 | -46.79190 | 14206 ft | 312 kts | 63° |
| 2026-05-06 01:42 | -22.83252 | -46.77127 | 14208 ft | 313 kts | 62° |
| 2026-05-06 01:42 | -22.82208 | -46.75061 | 14208 ft | 313 kts | 62° |
| 2026-05-06 01:42 | -22.81249 | -46.72951 | 14216 ft | 312 kts | 70° |
| 2026-05-06 01:43 | -22.80590 | -46.70721 | 14216 ft | 311 kts | 75° |
| 2026-05-06 01:43 | -22.79987 | -46.68468 | 14219 ft | 311 kts | 75° |
| 2026-05-06 01:43 | -22.79376 | -46.66222 | 14220 ft | 311 kts | 75° |
| 2026-05-06 01:43 | -22.78765 | -46.63973 | 14225 ft | 311 kts | 76° |
| 2026-05-06 01:44 | -22.78379 | -46.61677 | 14228 ft | 310 kts | 86° |
| 2026-05-06 01:44 | -22.78253 | -46.59343 | 14224 ft | 310 kts | 88° |
| 2026-05-06 01:44 | -22.78133 | -46.57045 | 14227 ft | 310 kts | 87° |
| 2026-05-06 01:44 | -22.78005 | -46.54717 | 14235 ft | 310 kts | 87° |
| 2026-05-06 01:45 | -22.77919 | -46.52387 | 14236 ft | 309 kts | 92° |
| 2026-05-06 01:45 | -22.78143 | -46.50081 | 14236 ft | 309 kts | 101° |
| 2026-05-06 01:45 | -22.78517 | -46.47784 | 14243 ft | 309 kts | 100° |
| 2026-05-06 01:45 | -22.78879 | -46.45490 | 14242 ft | 309 kts | 100° |
| 2026-05-06 01:46 | -22.79236 | -46.43193 | 14240 ft | 309 kts | 100° |
| 2026-05-06 01:46 | -22.79750 | -46.40933 | 14244 ft | 310 kts | 109° |
| 2026-05-06 01:46 | -22.80581 | -46.38785 | 14248 ft | 310 kts | 115° |
| 2026-05-06 01:46 | -22.81479 | -46.36666 | 14251 ft | 309 kts | 115° |
| 2026-05-06 01:47 | -22.82622 | -46.34732 | 14243 ft | 305 kts | 135° |
| 2026-05-06 01:47 | -22.84365 | -46.33442 | 14243 ft | 308 kts | 158° |
| 2026-05-06 01:47 | -22.86466 | -46.33009 | 14148 ft | 311 kts | 181° |
| 2026-05-06 01:47 | -22.88578 | -46.33516 | 13809 ft | 316 kts | 204° |
| 2026-05-06 01:48 | -22.90480 | -46.34701 | 13465 ft | 313 kts | 211° |
| 2026-05-06 01:48 | -22.92298 | -46.35951 | 13188 ft | 307 kts | 211° |
| 2026-05-06 01:48 | -22.94107 | -46.37198 | 12918 ft | 309 kts | 211° |
| 2026-05-06 01:48 | -22.95933 | -46.38438 | 12645 ft | 309 kts | 211° |
| 2026-05-06 01:49 | -22.97747 | -46.39655 | 12376 ft | 306 kts | 211° |
| 2026-05-06 01:49 | -22.99568 | -46.40866 | 12106 ft | 306 kts | 210° |
| 2026-05-06 01:49 | -23.01381 | -46.42066 | 11841 ft | 305 kts | 210° |
| 2026-05-06 01:49 | -23.03194 | -46.43266 | 11565 ft | 304 kts | 210° |
| 2026-05-06 01:50 | -23.04986 | -46.44453 | 11298 ft | 302 kts | 210° |
| 2026-05-06 01:50 | -23.06771 | -46.45635 | 11036 ft | 302 kts | 210° |
| 2026-05-06 01:50 | -23.08564 | -46.46823 | 10773 ft | 301 kts | 210° |
| 2026-05-06 01:50 | -23.10348 | -46.48006 | 10509 ft | 300 kts | 210° |
| 2026-05-06 01:51 | -23.12127 | -46.49187 | 10243 ft | 300 kts | 210° |
| 2026-05-06 01:51 | -23.13900 | -46.50364 | 9971 ft | 298 kts | 210° |
| 2026-05-06 01:51 | -23.15667 | -46.51537 | 9700 ft | 297 kts | 210° |
| 2026-05-06 01:51 | -23.17404 | -46.52692 | 9607 ft | 287 kts | 210° |
| 2026-05-06 01:52 | -23.19057 | -46.53791 | 9421 ft | 278 kts | 210° |
| 2026-05-06 01:52 | -23.20695 | -46.54880 | 8942 ft | 274 kts | 210° |
| 2026-05-06 01:52 | -23.22290 | -46.55963 | 8715 ft | 271 kts | 211° |
| 2026-05-06 01:52 | -23.23871 | -46.57085 | 8212 ft | 272 kts | 212° |
| 2026-05-06 01:53 | -23.25432 | -46.58206 | 7985 ft | 267 kts | 212° |
| 2026-05-06 01:53 | -23.26988 | -46.59324 | 7765 ft | 269 kts | 212° |
| 2026-05-06 01:53 | -23.28541 | -46.60434 | 7525 ft | 266 kts | 211° |
| 2026-05-06 01:53 | -23.30091 | -46.61538 | 7290 ft | 266 kts | 211° |
| 2026-05-06 01:54 | -23.31312 | -46.62405 | 7115 ft | 267 kts | 211° |
| 2026-05-06 01:54 | -23.32842 | -46.63496 | 6862 ft | 263 kts | 211° |
| 2026-05-06 01:54 | -23.34382 | -46.64589 | 6623 ft | 264 kts | 211° |
| 2026-05-06 01:54 | -23.35910 | -46.65672 | 6374 ft | 261 kts | 211° |